Time;durP1;ratioP1;P1;durP2;ratioP2;P2;SDS_P1;SDS_P2;PMS_P1;PMS_P2;Temp;Humidity;BMP_temperature;BMP_pressure;BME280_temperature;BME280_humidity;BME280_pressure;Samples;Min_cycle;Max_cycle;Signal;HPM_P1;HPM_P2
2023/10/27 00:00:57;;;;;;;19.48;12.80;;;11.70;99.90;;;;;;5033853;28;20441;-74
2023/10/27 00:03:23;;;;;;;17.83;12.30;;;11.70;99.90;;;;;;5034313;28;20391;-74
2023/10/27 00:05:48;;;;;;;23.03;12.93;;;11.80;99.90;;;;;;5033971;28;20478;-75
2023/10/27 00:08:14;;;;;;;21.30;12.07;;;11.80;99.90;;;;;;5035061;28;20386;-75
2023/10/27 00:10:40;;;;;;;20.20;11.97;;;11.80;99.90;;;;;;5035230;28;20398;-75
2023/10/27 00:13:05;;;;;;;15.13;10.90;;;11.80;99.90;;;;;;5049012;28;20987;-74
2023/10/27 00:15:31;;;;;;;21.00;12.33;;;11.80;99.90;;;;;;5046700;28;20379;-74
2023/10/27 00:17:58;;;;;;;15.32;11.35;;;11.80;99.90;;;;;;5038814;28;20422;-74
2023/10/27 00:20:24;;;;;;;18.67;12.10;;;11.90;99.90;;;;;;5031094;28;20414;-74
2023/10/27 00:22:49;;;;;;;20.93;10.90;;;11.80;99.90;;;;;;5032772;28;20488;-74
2023/10/27 00:25:15;;;;;;;15.40;11.87;;;11.80;99.90;;;;;;5032399;28;20391;-74
2023/10/27 00:27:41;;;;;;;19.53;12.07;;;11.80;99.90;;;;;;5033162;28;20397;-74
2023/10/27 00:30:08;;;;;;;20.63;11.77;;;11.80;99.90;;;;;;5033027;28;20797;-74
2023/10/27 00:32:34;;;;;;;21.08;11.55;;;11.80;99.90;;;;;;5032861;28;20449;-74
2023/10/27 00:35:00;;;;;;;20.02;11.70;;;11.90;99.90;;;;;;5032343;28;20438;-74
2023/10/27 00:37:26;;;;;;;20.80;11.90;;;11.80;99.90;;;;;;5032699;28;20422;-74
2023/10/27 00:39:51;;;;;;;21.13;10.48;;;11.80;99.90;;;;;;5032111;28;20757;-74
2023/10/27 00:42:17;;;;;;;20.33;11.15;;;11.80;99.90;;;;;;5030880;28;20398;-73
2023/10/27 00:44:42;;;;;;;23.13;10.60;;;11.80;99.90;;;;;;5031566;28;20730;-74
2023/10/27 00:47:08;;;;;;;23.10;10.90;;;11.70;99.90;;;;;;5032307;28;20375;-74
2023/10/27 00:49:34;;;;;;;23.08;11.23;;;11.70;99.90;;;;;;5032218;28;20387;-74
2023/10/27 00:52:01;;;;;;;18.30;10.65;;;11.70;99.90;;;;;;5032255;28;20387;-74
2023/10/27 00:54:27;;;;;;;18.88;9.65;;;11.80;99.90;;;;;;5031877;28;20470;-74
2023/10/27 00:56:54;;;;;;;18.67;9.85;;;11.60;99.90;;;;;;5032008;28;20398;-74
2023/10/27 00:59:20;;;;;;;18.10;10.13;;;11.60;99.90;;;;;;5031363;28;20383;-74
2023/10/27 01:01:45;;;;;;;15.88;9.48;;;11.60;99.90;;;;;;5030525;28;20387;-74
2023/10/27 01:04:11;;;;;;;15.60;9.00;;;11.60;99.90;;;;;;5031476;28;20379;-73
2023/10/27 01:06:37;;;;;;;21.87;9.87;;;11.60;99.90;;;;;;5031510;28;20387;-75
2023/10/27 01:09:02;;;;;;;18.30;9.30;;;11.70;99.90;;;;;;5031669;28;20411;-73
2023/10/27 01:11:29;;;;;;;20.03;9.30;;;11.70;99.90;;;;;;5030741;28;20387;-74
2023/10/27 01:13:55;;;;;;;17.23;9.90;;;11.70;99.90;;;;;;5031575;28;20387;-74
2023/10/27 01:16:23;;;;;;;20.20;9.85;;;11.60;99.90;;;;;;5031188;28;20478;-74
2023/10/27 01:18:49;;;;;;;24.00;9.80;;;11.60;99.90;;;;;;5031391;28;20413;-73
2023/10/27 01:21:15;;;;;;;19.33;9.60;;;11.60;99.90;;;;;;5030111;28;20407;-73
2023/10/27 01:23:41;;;;;;;21.17;9.20;;;11.60;99.90;;;;;;5030267;28;20395;-76
2023/10/27 01:26:06;;;;;;;19.00;8.93;;;11.60;99.90;;;;;;5031240;28;20383;-73
2023/10/27 01:28:32;;;;;;;18.73;8.70;;;11.60;99.90;;;;;;5031431;28;20558;-73
2023/10/27 01:30:57;;;;;;;18.73;8.77;;;11.70;99.90;;;;;;5031382;28;20387;-73
2023/10/27 01:33:23;;;;;;;21.92;8.60;;;11.70;99.90;;;;;;5031234;28;20402;-73
2023/10/27 01:35:52;;;;;;;17.02;8.30;;;11.70;99.90;;;;;;5031161;28;20743;-73
2023/10/27 01:38:18;;;;;;;19.75;8.30;;;11.70;99.90;;;;;;5031015;28;20437;-73
2023/10/27 01:40:43;;;;;;;19.40;8.80;;;11.60;99.90;;;;;;5031143;28;20808;-74
2023/10/27 01:43:09;;;;;;;21.10;8.65;;;11.60;99.90;;;;;;5030817;28;20566;-74
2023/10/27 01:45:35;;;;;;;21.67;7.80;;;11.60;99.90;;;;;;5030908;28;20397;-73
2023/10/27 01:48:00;;;;;;;19.30;8.45;;;11.60;99.90;;;;;;5031035;28;20379;-74
2023/10/27 01:50:26;;;;;;;16.40;7.70;;;11.60;99.90;;;;;;5031011;28;20473;-74
2023/10/27 01:52:52;;;;;;;15.88;7.63;;;11.60;99.90;;;;;;5031029;28;20793;-74
2023/10/27 01:55:18;;;;;;;19.30;7.53;;;11.50;99.90;;;;;;5030635;28;20387;-74
2023/10/27 01:57:44;;;;;;;16.50;7.60;;;11.60;99.70;;;;;;5031236;28;20388;-74
2023/10/27 02:00:10;;;;;;;17.52;7.68;;;11.50;99.50;;;;;;5031276;28;20413;-74
2023/10/27 02:02:36;;;;;;;15.90;7.90;;;11.50;99.80;;;;;;5031357;28;20383;-74
2023/10/27 02:05:03;;;;;;;15.20;7.35;;;11.60;99.90;;;;;;5042339;28;20374;-74
2023/10/27 02:07:28;;;;;;;23.17;7.15;;;11.50;99.90;;;;;;5050222;28;20387;-74
2023/10/27 02:10:00;;;;;;;16.27;6.80;;;11.60;99.00;;;;;;5033249;28;20410;-74
2023/10/27 02:12:26;;;;;;;19.47;7.20;;;11.50;98.50;;;;;;5031263;28;20379;-74
2023/10/27 02:14:52;;;;;;;21.77;7.95;;;11.50;99.90;;;;;;5030771;28;20401;-74
2023/10/27 02:17:18;;;;;;;15.55;7.03;;;11.50;99.90;;;;;;5031252;28;20383;-74
2023/10/27 02:19:43;;;;;;;16.83;7.35;;;11.40;99.90;;;;;;5031038;28;20498;-74
2023/10/27 02:22:09;;;;;;;13.70;6.60;;;11.50;99.90;;;;;;5032738;28;20465;-74
2023/10/27 02:24:37;;;;;;;19.98;7.63;;;11.50;98.50;;;;;;5037087;28;20394;-74
2023/10/27 02:27:03;;;;;;;16.75;7.22;;;11.40;98.90;;;;;;5037333;28;20764;-74
2023/10/27 02:29:28;;;;;;;23.00;6.87;;;11.50;98.20;;;;;;5037057;28;20383;-75
2023/10/27 02:31:54;;;;;;;15.87;6.50;;;11.40;99.50;;;;;;5037125;28;20387;-74
2023/10/27 02:34:20;;;;;;;23.27;7.27;;;11.30;99.90;;;;;;5036932;28;20465;-75
2023/10/27 02:36:45;;;;;;;22.25;6.72;;;11.30;99.90;;;;;;5036889;28;20392;-73
2023/10/27 02:39:11;;;;;;;20.98;7.25;;;11.30;99.90;;;;;;5037136;28;20873;-74
2023/10/27 02:41:36;;;;;;;17.70;6.70;;;11.30;99.90;;;;;;5036953;28;20411;-74
2023/10/27 02:44:03;;;;;;;17.95;6.10;;;11.30;99.90;;;;;;5037044;28;20386;-74
2023/10/27 02:46:29;;;;;;;17.90;7.05;;;11.30;99.90;;;;;;5035836;28;20485;-74
2023/10/27 02:48:54;;;;;;;21.40;6.40;;;11.40;99.90;;;;;;5037235;28;20469;-75
2023/10/27 02:51:21;;;;;;;13.27;6.60;;;11.40;98.70;;;;;;5036981;28;20873;-74
2023/10/27 02:53:47;;;;;;;22.77;7.30;;;11.40;99.20;;;;;;5037219;28;20764;-73
2023/10/27 02:56:13;;;;;;;16.85;6.80;;;11.30;99.90;;;;;;5037859;28;20892;-73
2023/10/27 02:58:39;;;;;;;22.15;7.50;;;11.30;99.90;;;;;;5038106;28;20804;-74
2023/10/27 03:01:08;;;;;;;15.48;7.20;;;11.30;99.90;;;;;;5038621;28;20909;-74
2023/10/27 03:03:34;;;;;;;17.83;7.07;;;11.30;99.90;;;;;;5038657;28;20425;-73
2023/10/27 03:06:01;;;;;;;74.90;29.95;;;11.30;99.90;;;;;;5039472;28;20379;-74
2023/10/27 03:08:26;;;;;;;14.20;5.97;;;11.20;99.90;;;;;;5038778;28;20474;-74
2023/10/27 03:10:52;;;;;;;19.37;6.47;;;11.30;99.90;;;;;;5037177;28;20466;-73
2023/10/27 03:13:17;;;;;;;15.20;6.60;;;11.30;99.90;;;;;;5036771;28;20422;-74
2023/10/27 03:15:43;;;;;;;17.60;6.83;;;11.20;99.90;;;;;;5036707;28;20383;-74
2023/10/27 03:18:09;;;;;;;20.93;8.63;;;11.30;99.90;;;;;;5037028;28;20426;-74
2023/10/27 03:20:34;;;;;;;19.83;7.47;;;11.30;99.90;;;;;;5036731;28;20414;-73
2023/10/27 03:23:00;;;;;;;14.80;6.38;;;11.20;99.90;;;;;;5039360;28;20742;-73
2023/10/27 03:25:25;;;;;;;15.27;6.22;;;11.30;99.90;;;;;;5036762;28;20411;-73
2023/10/27 03:27:51;;;;;;;17.52;7.32;;;11.30;99.90;;;;;;5037113;28;20387;-73
2023/10/27 03:30:16;;;;;;;18.40;6.50;;;11.30;99.90;;;;;;5036738;28;20870;-73
2023/10/27 03:32:42;;;;;;;21.93;6.60;;;11.20;99.90;;;;;;5036987;28;20738;-73
2023/10/27 03:35:08;;;;;;;18.73;6.30;;;11.20;99.90;;;;;;5070266;23;20458;-70
2023/10/27 03:37:33;;;;;;;21.60;7.25;;;11.20;99.90;;;;;;5086004;28;20383;-73
2023/10/27 03:40:01;;;;;;;17.17;6.38;;;11.10;99.90;;;;;;5084644;28;20415;-72
2023/10/27 03:42:27;;;;;;;15.68;6.70;;;11.10;99.90;;;;;;5081776;28;20433;-71
2023/10/27 03:44:52;;;;;;;15.88;5.75;;;11.10;99.90;;;;;;5084271;28;20400;-72
2023/10/27 03:47:18;;;;;;;18.27;7.25;;;11.10;99.90;;;;;;5085228;28;20372;-72
2023/10/27 03:49:43;;;;;;;18.70;6.53;;;11.10;99.90;;;;;;5084532;28;20383;-72
2023/10/27 03:52:09;;;;;;;18.57;5.87;;;11.10;99.90;;;;;;5082181;28;20416;-73
2023/10/27 03:54:35;;;;;;;14.73;5.53;;;11.10;99.90;;;;;;5084784;28;20379;-73
2023/10/27 03:57:01;;;;;;;19.53;6.10;;;11.20;99.90;;;;;;5086298;28;20451;-72
2023/10/27 03:59:27;;;;;;;17.17;6.38;;;11.10;99.90;;;;;;5087029;28;20865;-72
2023/10/27 04:01:53;;;;;;;23.40;6.50;;;11.10;99.90;;;;;;5087516;28;20399;-73
2023/10/27 04:04:18;;;;;;;14.40;6.20;;;11.20;99.90;;;;;;5088193;28;20877;-71
2023/10/27 04:06:47;;;;;;;18.37;6.10;;;11.20;99.90;;;;;;5087467;28;20469;-79
2023/10/27 04:09:12;;;;;;;16.77;5.93;;;11.10;99.90;;;;;;5084776;28;20486;-73
2023/10/27 04:11:38;;;;;;;20.53;5.50;;;11.10;99.90;;;;;;5085584;28;20719;-71
2023/10/27 04:14:04;;;;;;;15.87;6.27;;;11.20;99.90;;;;;;5085105;28;20396;-73
2023/10/27 04:16:30;;;;;;;16.55;5.70;;;11.10;99.90;;;;;;5085386;28;20408;-73
2023/10/27 04:18:56;;;;;;;19.13;6.88;;;11.10;99.90;;;;;;5067733;28;20388;-72
2023/10/27 04:21:22;;;;;;;20.73;6.40;;;11.10;99.90;;;;;;5083558;28;20411;-72
2023/10/27 04:23:47;;;;;;;24.57;7.10;;;11.20;99.90;;;;;;5084712;28;20396;-71
2023/10/27 04:26:15;;;;;;;15.17;5.60;;;11.20;99.90;;;;;;5086223;28;20384;-71
2023/10/27 04:28:42;;;;;;;20.73;6.35;;;11.30;99.90;;;;;;5087040;28;20394;-72
2023/10/27 04:31:08;;;;;;;17.30;5.80;;;11.30;99.90;;;;;;5085834;28;20395;-72
2023/10/27 04:33:36;;;;;;;17.80;5.50;;;11.30;99.90;;;;;;5085698;28;20380;-71
2023/10/27 04:36:02;;;;;;;14.93;5.50;;;11.30;99.90;;;;;;5085554;28;20399;-73
2023/10/27 04:38:27;;;;;;;17.00;5.88;;;11.20;99.90;;;;;;5084410;28;20399;-70
2023/10/27 04:40:53;;;;;;;20.90;6.40;;;11.10;99.90;;;;;;5083241;28;20494;-69
2023/10/27 04:43:21;;;;;;;18.08;5.80;;;11.10;99.90;;;;;;5086388;28;20510;-76
2023/10/27 04:45:46;;;;;;;20.45;5.80;;;11.10;99.90;;;;;;5085620;28;20452;-72
2023/10/27 04:48:12;;;;;;;20.25;6.28;;;11.00;99.90;;;;;;5087934;28;20753;-71
2023/10/27 04:50:38;;;;;;;21.10;5.78;;;11.20;99.90;;;;;;5086402;28;20380;-71
2023/10/27 04:53:03;;;;;;;14.47;6.00;;;11.10;99.90;;;;;;5087602;28;20399;-72
2023/10/27 04:55:29;;;;;;;21.23;5.40;;;11.00;99.90;;;;;;5087336;28;20414;-71
2023/10/27 04:57:54;;;;;;;14.87;5.73;;;11.10;99.90;;;;;;5086594;28;20463;-71
2023/10/27 05:00:20;;;;;;;22.00;5.83;;;11.10;99.90;;;;;;5084611;28;20396;-71
2023/10/27 05:02:46;;;;;;;22.42;5.90;;;11.10;99.90;;;;;;5086063;28;20418;-70
2023/10/27 05:05:11;;;;;;;11.38;4.95;;;11.10;99.90;;;;;;5082995;28;20395;-70
2023/10/27 05:07:37;;;;;;;17.13;5.68;;;11.00;99.90;;;;;;5084136;28;20411;-73
2023/10/27 05:10:07;;;;;;;21.08;5.70;;;11.00;99.90;;;;;;5085141;28;20395;-71
2023/10/27 05:12:33;;;;;;;22.10;6.22;;;11.00;99.90;;;;;;5082924;28;20376;-73
2023/10/27 05:14:58;;;;;;;27.08;6.78;;;11.10;99.90;;;;;;5083561;28;20402;-72
2023/10/27 05:17:24;;;;;;;18.87;5.80;;;11.00;99.90;;;;;;5084632;28;20787;-70
2023/10/27 05:19:49;;;;;;;19.35;5.57;;;11.00;99.90;;;;;;5085132;28;20836;-72
2023/10/27 05:22:15;;;;;;;21.25;6.00;;;11.10;99.90;;;;;;5085911;28;20421;-71
2023/10/27 05:24:41;;;;;;;16.90;5.73;;;11.00;99.90;;;;;;5084404;28;20383;-72
2023/10/27 05:27:07;;;;;;;20.20;6.40;;;11.10;99.90;;;;;;5085445;28;20383;-72
2023/10/27 05:29:33;;;;;;;17.97;6.40;;;11.10;99.90;;;;;;5085907;28;20458;-72
2023/10/27 05:31:58;;;;;;;19.70;6.30;;;11.10;99.90;;;;;;5086294;28;20632;-72
2023/10/27 05:34:24;;;;;;;22.35;6.28;;;11.20;99.90;;;;;;5085287;28;20387;-71
2023/10/27 05:36:49;;;;;;;22.90;6.10;;;11.10;99.90;;;;;;5084894;28;20388;-71
2023/10/27 05:39:19;;;;;;;22.23;6.47;;;11.10;99.90;;;;;;5085885;28;20455;-70
2023/10/27 05:41:46;;;;;;;20.20;6.20;;;11.30;99.90;;;;;;5085865;28;20403;-71
2023/10/27 05:44:15;;;;;;;19.60;5.78;;;11.30;99.90;;;;;;5083173;28;20388;-71
2023/10/27 05:46:40;;;;;;;15.82;5.30;;;11.30;99.60;;;;;;5081844;28;20455;-72
2023/10/27 05:49:06;;;;;;;16.73;6.28;;;11.30;99.90;;;;;;5083337;28;20744;-70
2023/10/27 05:51:33;;;;;;;20.23;6.13;;;11.30;99.90;;;;;;5083267;28;20384;-71
2023/10/27 05:53:59;;;;;;;21.50;6.45;;;11.20;99.90;;;;;;5083966;28;20387;-72
2023/10/27 05:56:27;;;;;;;15.73;5.33;;;11.30;99.90;;;;;;5082200;28;20379;-70
2023/10/27 05:58:52;;;;;;;25.10;6.70;;;11.30;99.90;;;;;;5083311;28;20380;-71
2023/10/27 06:01:19;;;;;;;19.35;5.57;;;11.20;99.90;;;;;;5081721;28;20400;-71
2023/10/27 06:03:45;;;;;;;19.55;6.03;;;11.30;99.90;;;;;;5084615;28;20395;-72
2023/10/27 06:06:11;;;;;;;21.33;6.47;;;11.40;99.70;;;;;;5084320;28;20507;-70
2023/10/27 06:08:42;;;;;;;26.03;7.00;;;11.30;99.90;;;;;;5090926;28;20380;-71
2023/10/27 06:11:08;;;;;;;17.30;5.68;;;11.20;99.90;;;;;;5087299;28;20423;-72
2023/10/27 06:13:33;;;;;;;15.70;5.72;;;11.30;99.90;;;;;;5086908;28;20375;-73
2023/10/27 06:15:59;;;;;;;23.15;6.18;;;11.30;99.90;;;;;;5086619;28;20425;-69
2023/10/27 06:18:24;;;;;;;23.40;6.80;;;11.30;99.90;;;;;;5091277;28;20399;-68
2023/10/27 06:20:50;;;;;;;22.53;5.80;;;11.20;99.90;;;;;;5091494;28;20446;-71
2023/10/27 06:23:16;;;;;;;19.17;6.47;;;11.20;99.90;;;;;;5093213;28;20454;-71
2023/10/27 06:25:41;;;;;;;20.83;7.43;;;11.30;99.90;;;;;;5092864;28;20413;-71
2023/10/27 06:28:07;;;;;;;16.25;7.28;;;11.20;99.90;;;;;;5087986;28;20403;-70
2023/10/27 06:30:32;;;;;;;15.88;6.28;;;11.30;99.90;;;;;;5074792;28;20401;-71
2023/10/27 06:32:58;;;;;;;19.42;6.20;;;11.30;99.90;;;;;;5069522;28;20384;-71
2023/10/27 06:35:23;;;;;;;20.77;6.37;;;11.30;99.90;;;;;;5065141;28;20397;-71
2023/10/27 06:37:49;;;;;;;16.07;6.77;;;11.30;99.90;;;;;;5061434;28;20425;-70
2023/10/27 06:40:14;;;;;;;15.37;6.80;;;11.20;99.90;;;;;;5062854;28;20420;-71
2023/10/27 06:42:40;;;;;;;21.85;7.18;;;11.20;99.90;;;;;;5060033;28;20401;-72
2023/10/27 06:45:08;;;;;;;13.65;6.57;;;11.30;99.90;;;;;;5061434;28;20381;-72
2023/10/27 06:47:35;;;;;;;16.67;6.88;;;11.30;99.90;;;;;;5057654;28;20396;-72
2023/10/27 06:50:04;;;;;;;20.77;7.93;;;11.30;99.90;;;;;;5071732;28;20465;-73
2023/10/27 06:52:31;;;;;;;23.88;7.95;;;11.30;99.90;;;;;;5078345;28;20387;-70
2023/10/27 06:54:57;;;;;;;20.48;7.45;;;12.00;99.90;;;;;;5079171;28;20624;-70
2023/10/27 06:57:23;;;;;;;17.43;7.00;;;11.40;99.90;;;;;;5075471;28;20426;-71
2023/10/27 06:59:48;;;;;;;23.90;8.00;;;11.40;99.90;;;;;;5075606;28;21014;-72
2023/10/27 07:02:14;;;;;;;18.13;7.10;;;11.50;99.90;;;;;;5074776;28;20398;-72
2023/10/27 07:04:40;;;;;;;17.50;7.45;;;11.50;99.90;;;;;;5075106;28;20422;-70
2023/10/27 07:07:06;;;;;;;20.48;7.20;;;11.50;99.90;;;;;;5076042;28;20774;-70
2023/10/27 07:09:32;;;;;;;17.23;7.07;;;11.50;99.90;;;;;;5072153;28;20498;-71
2023/10/27 07:12:00;;;;;;;16.58;7.40;;;11.50;99.90;;;;;;5071401;28;20467;-69
2023/10/27 07:14:26;;;;;;;18.80;6.85;;;11.60;99.90;;;;;;5060452;28;20409;-71
2023/10/27 07:16:52;;;;;;;17.17;7.20;;;11.60;99.90;;;;;;5064802;28;20409;-71
2023/10/27 07:19:18;;;;;;;16.23;6.67;;;11.70;99.90;;;;;;5060407;28;20392;-71
2023/10/27 07:21:44;;;;;;;23.10;7.57;;;11.70;99.90;;;;;;5060575;28;20409;-69
2023/10/27 07:24:10;;;;;;;17.70;7.00;;;11.70;99.90;;;;;;5060805;28;20720;-71
2023/10/27 07:26:36;;;;;;;18.33;7.07;;;11.60;99.90;;;;;;5061634;28;20381;-71
2023/10/27 07:29:02;;;;;;;16.97;6.70;;;11.70;99.90;;;;;;5075432;28;20480;-73
2023/10/27 07:31:28;;;;;;;11.18;6.70;;;12.80;99.90;;;;;;5081702;28;20414;-72
2023/10/27 07:33:55;;;;;;;14.45;6.68;;;11.90;99.90;;;;;;5079666;28;20443;-71
2023/10/27 07:36:21;;;;;;;18.55;6.63;;;11.90;99.90;;;;;;5082333;28;20403;-70
2023/10/27 07:38:49;;;;;;;16.58;6.25;;;12.00;98.50;;;;;;5086414;28;20396;-71
2023/10/27 07:41:15;;;;;;;14.35;6.20;;;12.00;97.30;;;;;;5086284;28;20399;-71
2023/10/27 07:43:40;;;;;;;14.43;5.97;;;12.10;95.80;;;;;;5085523;28;20402;-71
2023/10/27 07:46:06;;;;;;;12.90;5.50;;;12.10;95.40;;;;;;5082941;28;20396;-72
2023/10/27 07:48:32;;;;;;;17.20;5.30;;;12.10;94.30;;;;;;5086054;28;20419;-71
2023/10/27 07:50:58;;;;;;;14.40;5.15;;;12.20;93.00;;;;;;5086880;28;20869;-71
2023/10/27 07:53:26;;;;;;;12.95;4.60;;;12.20;92.00;;;;;;5071033;28;20752;-70
2023/10/27 07:55:51;;;;;;;16.55;5.43;;;12.20;90.20;;;;;;5063913;28;20400;-71
2023/10/27 07:58:17;;;;;;;12.43;5.22;;;12.10;92.10;;;;;;5073026;28;20400;-71
2023/10/27 08:00:43;;;;;;;12.20;4.90;;;12.10;91.70;;;;;;5083339;28;20778;-72
2023/10/27 08:03:09;;;;;;;15.73;5.20;;;12.20;91.40;;;;;;5083772;28;20611;-71
2023/10/27 08:05:35;;;;;;;11.18;4.90;;;12.10;93.10;;;;;;5068748;28;20386;-72
2023/10/27 08:08:03;;;;;;;10.60;4.97;;;12.10;95.20;;;;;;5064251;28;20393;-71
2023/10/27 08:10:29;;;;;;;14.25;5.88;;;12.00;95.90;;;;;;5063207;28;20476;-70
2023/10/27 08:12:55;;;;;;;14.00;6.10;;;12.00;96.80;;;;;;5064057;28;20704;-70
2023/10/27 08:15:21;;;;;;;13.50;5.22;;;12.10;97.70;;;;;;5063803;28;20956;-72
2023/10/27 08:17:47;;;;;;;10.10;5.95;;;12.10;97.20;;;;;;5063584;28;20401;-71
2023/10/27 08:20:12;;;;;;;10.93;6.00;;;12.10;97.50;;;;;;5066370;28;20440;-73
2023/10/27 08:22:39;;;;;;;9.77;6.13;;;12.20;96.10;;;;;;5085740;28;20536;-72
2023/10/27 08:25:04;;;;;;;9.52;5.40;;;12.20;95.60;;;;;;5083462;28;20395;-72
2023/10/27 08:27:30;;;;;;;14.07;6.13;;;12.20;95.70;;;;;;5068048;28;20411;-72
2023/10/27 08:29:57;;;;;;;14.60;5.85;;;12.10;97.00;;;;;;5061458;28;20393;-72
2023/10/27 08:32:22;;;;;;;11.38;5.20;;;12.20;95.10;;;;;;5078219;28;20376;-74
2023/10/27 08:34:48;;;;;;;11.90;5.63;;;12.30;94.70;;;;;;5070804;28;20437;-72
2023/10/27 08:37:16;;;;;;;8.40;5.10;;;12.30;94.50;;;;;;5070595;28;20388;-73
2023/10/27 08:39:42;;;;;;;8.17;4.40;;;12.30;95.40;;;;;;5082532;28;20431;-71
2023/10/27 08:42:08;;;;;;;11.35;4.22;;;12.40;91.90;;;;;;5063281;28;20400;-71
2023/10/27 08:44:34;;;;;;;6.68;3.78;;;12.50;88.80;;;;;;5068447;28;20393;-70
2023/10/27 08:47:04;;;;;;;9.23;4.60;;;12.50;88.80;;;;;;5077190;28;20384;-74
2023/10/27 08:49:30;;;;;;;8.60;4.90;;;12.60;88.60;;;;;;5083027;28;20783;-70
2023/10/27 08:52:00;;;;;;;8.05;4.30;;;12.60;88.30;;;;;;5082020;28;20411;-72
2023/10/27 08:54:26;;;;;;;7.60;4.60;;;12.70;87.80;;;;;;5064610;28;20465;-70
2023/10/27 08:56:51;;;;;;;6.90;4.80;;;12.80;86.00;;;;;;5063993;28;20791;-73
2023/10/27 08:59:17;;;;;;;9.38;4.40;;;12.90;83.30;;;;;;5065416;28;20472;-73
2023/10/27 09:01:43;;;;;;;8.73;5.40;;;12.90;82.50;;;;;;5062817;28;20401;-71
2023/10/27 09:04:13;;;;;;;6.97;4.43;;;13.10;80.70;;;;;;5062244;28;20836;-73
2023/10/27 09:06:41;;;;;;;7.63;5.00;;;13.10;77.00;;;;;;5082248;28;20432;-71
2023/10/27 09:09:09;;;;;;;6.60;4.90;;;13.00;80.30;;;;;;5081547;28;20778;-70
2023/10/27 09:11:42;;;;;;;7.03;4.70;;;13.00;76.60;;;;;;5080545;28;20829;-73
2023/10/27 09:14:26;;;;;;;12.60;6.55;;;13.10;79.70;;;;;;5079482;28;20394;-72
2023/10/27 09:16:51;;;;;;;8.10;5.63;;;13.10;81.30;;;;;;5082171;28;20795;-73
2023/10/27 09:19:22;;;;;;;13.40;5.30;;;13.10;79.00;;;;;;5082502;28;20457;-72
2023/10/27 09:21:48;;;;;;;9.82;5.53;;;13.20;77.90;;;;;;5082260;28;20439;-73
2023/10/27 09:24:40;;;;;;;7.85;5.10;;;13.10;80.30;;;;;;5083161;28;20750;-72
2023/10/27 09:27:05;;;;;;;8.63;5.78;;;13.00;78.60;;;;;;5080072;28;20404;-70
2023/10/27 09:29:41;;;;;;;9.30;6.00;;;13.00;82.00;;;;;;5077160;28;20535;-74
2023/10/27 09:32:26;;;;;;;9.40;5.80;;;12.90;83.90;;;;;;5072190;28;20400;-72
2023/10/27 09:35:09;;;;;;;11.18;6.05;;;12.90;85.00;;;;;;5096714;23;20384;-74
2023/10/27 09:37:37;;;;;;;7.43;5.75;;;12.90;87.10;;;;;;5052291;28;20385;-73
2023/10/27 09:40:06;;;;;;;8.55;5.30;;;12.90;88.70;;;;;;5040494;28;20871;-73
2023/10/27 09:42:35;;;;;;;8.57;6.13;;;13.00;85.20;;;;;;5032577;28;20391;-75
2023/10/27 09:45:14;;;;;;;7.63;5.80;;;13.10;85.60;;;;;;5028770;28;20392;-75
2023/10/27 09:47:47;;;;;;;9.55;6.68;;;13.20;82.80;;;;;;5012039;28;20392;-75
2023/10/27 09:50:14;;;;;;;10.80;7.13;;;13.20;83.90;;;;;;5013059;28;20423;-73
2023/10/27 09:52:43;;;;;;;8.48;6.22;;;13.30;82.70;;;;;;5012594;28;20443;-74
2023/10/27 09:55:13;;;;;;;9.65;7.53;;;13.40;82.10;;;;;;5031891;28;20906;-73
2023/10/27 09:57:41;;;;;;;12.03;8.30;;;13.50;82.40;;;;;;5031713;28;20395;-74
2023/10/27 10:00:09;;;;;;;13.20;8.70;;;13.60;80.60;;;;;;5031948;28;20410;-74
2023/10/27 10:02:36;;;;;;;12.40;7.82;;;13.60;80.50;;;;;;5031495;28;20417;-74
2023/10/27 10:05:03;;;;;;;13.00;8.75;;;13.70;78.00;;;;;;5030866;28;20751;-75
2023/10/27 10:07:29;;;;;;;11.52;7.93;;;13.70;78.00;;;;;;5031951;28;20907;-75
2023/10/27 10:09:55;;;;;;;13.43;8.52;;;13.80;75.80;;;;;;5031239;28;20766;-72
2023/10/27 10:12:20;;;;;;;11.60;7.13;;;13.70;75.90;;;;;;5030150;28;20395;-73
2023/10/27 10:14:48;;;;;;;8.55;7.15;;;13.70;73.50;;;;;;5030924;28;20406;-75
2023/10/27 10:17:37;;;;;;;10.68;7.50;;;13.70;72.90;;;;;;5015048;28;20436;-74
2023/10/27 10:20:05;;;;;;;8.25;6.70;;;13.70;74.70;;;;;;5029125;28;20533;-75
2023/10/27 10:22:40;;;;;;;8.77;6.90;;;13.60;73.20;;;;;;5015770;28;20856;-74
2023/10/27 10:25:15;;;;;;;11.60;6.80;;;13.60;76.90;;;;;;5009699;28;20489;-75
2023/10/27 10:28:06;;;;;;;10.60;7.10;;;13.70;76.00;;;;;;5028522;28;20438;-75
2023/10/27 10:30:32;;;;;;;8.77;6.40;;;13.80;71.50;;;;;;5013532;28;20759;-75
2023/10/27 10:33:17;;;;;;;9.85;6.40;;;13.80;74.40;;;;;;5028621;28;20391;-74
2023/10/27 10:35:46;;;;;;;7.82;5.40;;;14.00;69.80;;;;;;5012475;28;20400;-73
2023/10/27 10:38:21;;;;;;;9.40;5.50;;;14.10;68.00;;;;;;5009768;28;20439;-73
2023/10/27 10:40:50;;;;;;;9.20;6.10;;;14.10;68.10;;;;;;5010551;28;20444;-73
2023/10/27 10:43:27;;;;;;;11.98;6.55;;;14.10;69.30;;;;;;5011276;28;20392;-73
2023/10/27 10:45:59;;;;;;;8.52;6.00;;;14.10;69.40;;;;;;5015155;28;20385;-74
2023/10/27 10:48:29;;;;;;;5.75;5.03;;;14.20;70.40;;;;;;5031870;28;20391;-74
2023/10/27 10:51:03;;;;;;;9.13;5.40;;;14.30;65.60;;;;;;5034194;28;20462;-73
2023/10/27 10:53:28;;;;;;;6.70;5.30;;;14.50;63.70;;;;;;5032733;28;20391;-73
2023/10/27 10:55:58;;;;;;;6.90;5.10;;;14.60;62.40;;;;;;5016070;28;20492;-74
2023/10/27 10:58:26;;;;;;;7.57;4.75;;;14.70;61.10;;;;;;5014376;28;20388;-75
2023/10/27 11:00:55;;;;;;;5.03;4.40;;;14.70;60.70;;;;;;5026525;28;21010;-75
2023/10/27 11:03:22;;;;;;;7.13;3.73;;;14.60;57.60;;;;;;5023373;28;20458;-76
2023/10/27 11:05:51;;;;;;;8.82;4.30;;;14.40;58.50;;;;;;5013862;28;20385;-75
2023/10/27 11:08:24;;;;;;;6.95;4.40;;;14.30;61.40;;;;;;5014159;28;20392;-75
2023/10/27 11:11:14;;;;;;;6.75;4.40;;;14.20;63.20;;;;;;5024456;28;20392;-74
2023/10/27 11:13:46;;;;;;;6.25;4.43;;;14.20;64.00;;;;;;5032945;28;20391;-74
2023/10/27 11:16:22;;;;;;;5.78;4.43;;;14.00;64.10;;;;;;5034915;28;20415;-76
2023/10/27 11:18:50;;;;;;;10.70;4.80;;;13.80;67.30;;;;;;5034992;28;20402;-74
2023/10/27 11:21:19;;;;;;;6.73;5.20;;;13.60;70.30;;;;;;5027464;28;20407;-76
2023/10/27 11:23:46;;;;;;;8.23;5.00;;;13.50;71.00;;;;;;5037893;28;20391;-75
2023/10/27 11:26:12;;;;;;;10.38;5.80;;;13.50;73.70;;;;;;5034190;28;20379;-75
2023/10/27 11:28:40;;;;;;;10.77;6.30;;;13.40;76.90;;;;;;5034439;28;20383;-75
2023/10/27 11:31:10;;;;;;;11.45;6.90;;;13.40;81.10;;;;;;5034011;28;20393;-76
2023/10/27 11:33:55;;;;;;;12.13;7.05;;;13.40;79.70;;;;;;5034410;28;20846;-76
2023/10/27 11:36:21;;;;;;;12.70;6.70;;;13.50;78.40;;;;;;5034892;28;20888;-74
2023/10/27 11:38:47;;;;;;;14.13;8.43;;;13.50;77.30;;;;;;5033203;28;20391;-75
2023/10/27 11:41:12;;;;;;;13.50;8.30;;;13.60;76.40;;;;;;5035724;28;20407;-74
2023/10/27 11:43:40;;;;;;;13.60;7.90;;;13.80;76.50;;;;;;5036167;28;20407;-76
2023/10/27 11:46:18;;;;;;;11.13;7.50;;;14.00;72.90;;;;;;5039279;28;20407;-74
2023/10/27 11:48:48;;;;;;;13.65;8.20;;;14.20;73.10;;;;;;5040933;28;20406;-76
2023/10/27 11:51:13;;;;;;;17.98;8.68;;;14.40;71.90;;;;;;5039428;28;20399;-75
2023/10/27 11:53:46;;;;;;;15.93;8.60;;;14.60;67.30;;;;;;5026921;28;20452;-77
2023/10/27 11:56:12;;;;;;;15.75;8.73;;;14.90;62.10;;;;;;5020036;28;20406;-75
2023/10/27 11:58:39;;;;;;;12.70;8.50;;;15.00;59.10;;;;;;5032423;28;20395;-77
2023/10/27 12:01:05;;;;;;;17.30;8.48;;;15.00;61.00;;;;;;5036179;28;20418;-76
2023/10/27 12:03:31;;;;;;;17.60;9.25;;;15.10;59.50;;;;;;5034940;28;20390;-76
2023/10/27 12:05:56;;;;;;;13.82;8.63;;;15.10;59.10;;;;;;5033079;28;20394;-76
2023/10/27 12:08:23;;;;;;;24.10;8.60;;;15.20;59.00;;;;;;5028975;28;20406;-74
2023/10/27 12:10:59;;;;;;;16.00;8.90;;;15.20;59.20;;;;;;5013243;28;20401;-76
2023/10/27 12:13:25;;;;;;;22.42;9.20;;;15.30;56.70;;;;;;5033795;28;20403;-75
2023/10/27 12:15:50;;;;;;;17.58;8.88;;;15.20;55.90;;;;;;5028253;28;20719;-75
2023/10/27 12:18:19;;;;;;;19.23;9.10;;;15.10;58.30;;;;;;5030233;28;20387;-75
2023/10/27 12:20:45;;;;;;;17.25;9.15;;;15.10;58.70;;;;;;5030174;28;20414;-74
2023/10/27 12:23:11;;;;;;;19.30;8.35;;;15.20;58.30;;;;;;5026764;28;20408;-75
2023/10/27 12:25:37;;;;;;;17.17;8.70;;;15.30;57.30;;;;;;5022816;28;20704;-74
2023/10/27 12:28:03;;;;;;;18.50;8.93;;;15.20;58.50;;;;;;5037941;28;20418;-75
2023/10/27 12:30:30;;;;;;;17.98;8.57;;;15.40;55.50;;;;;;5030460;28;20961;-73
2023/10/27 12:32:56;;;;;;;14.80;8.70;;;15.30;57.10;;;;;;5030870;28;20391;-74
2023/10/27 12:35:22;;;;;;;17.60;9.00;;;15.30;57.70;;;;;;5027979;28;20563;-75
2023/10/27 12:37:53;;;;;;;20.20;8.87;;;15.10;58.10;;;;;;5034241;28;20395;-73